createdAt,value
2023-02-13T00:00:13.477Z,57.13
2023-02-13T00:02:49.583Z,56.30
2023-02-13T00:05:20.203Z,56.28
2023-02-13T00:07:53.199Z,56.62
2023-02-13T00:10:37.865Z,56.78
2023-02-13T00:13:16.030Z,56.88
2023-02-13T00:16:00.854Z,57.00
2023-02-13T00:18:39.609Z,57.05
2023-02-13T00:21:14.002Z,57.10
2023-02-13T00:23:47.127Z,57.26
2023-02-13T00:26:24.775Z,57.27
2023-02-13T00:29:28.591Z,57.23
2023-02-13T00:33:39.941Z,57.81
2023-02-13T00:36:34.342Z,56.58
2023-02-13T00:39:07.226Z,55.73
2023-02-13T00:41:38.962Z,55.90
2023-02-13T00:44:18.623Z,56.17
2023-02-13T00:46:49.231Z,56.36
2023-02-13T00:49:26.733Z,56.70
2023-02-13T00:51:55.901Z,57.03
2023-02-13T00:54:57.288Z,56.99
2023-02-13T00:57:55.693Z,57.35
2023-02-13T01:00:29.346Z,57.58
2023-02-13T01:03:08.816Z,57.79
2023-02-13T01:05:43.694Z,58.05
2023-02-13T01:08:14.887Z,57.69
2023-02-13T01:11:16.946Z,57.02
2023-02-13T01:13:58.496Z,56.45
2023-02-13T01:16:44.754Z,57.04
2023-02-13T01:19:17.906Z,57.41
2023-02-13T01:21:55.576Z,57.72
2023-02-13T01:24:40.989Z,57.88
2023-02-13T01:27:18.973Z,58.10
2023-02-13T01:29:59.732Z,57.85
2023-02-13T01:32:35.788Z,57.97
2023-02-13T01:35:13.055Z,57.96
2023-02-13T01:38:30.028Z,58.36
2023-02-13T01:41:09.638Z,58.17
2023-02-13T01:43:58.074Z,58.03
2023-02-13T01:46:39.089Z,57.36
2023-02-13T01:49:18.619Z,57.07
2023-02-13T01:51:51.066Z,57.49
2023-02-13T01:54:48.123Z,57.87
2023-02-13T01:57:21.819Z,58.44
2023-02-13T02:00:09.112Z,58.55
2023-02-13T02:03:37.758Z,59.00
2023-02-13T02:06:17.635Z,59.21
2023-02-13T02:08:56.148Z,59.09
2023-02-13T02:12:12.928Z,59.33
2023-02-13T02:14:46.804Z,58.77
2023-02-13T02:17:24.702Z,58.19
2023-02-13T02:20:18.917Z,58.47
2023-02-13T02:23:30.102Z,58.77
2023-02-13T02:26:43.191Z,58.80
2023-02-13T02:30:37.880Z,59.34
2023-02-13T02:34:12.152Z,59.67
2023-02-13T02:37:13.076Z,59.93
2023-02-13T02:39:56.857Z,60.15
2023-02-13T02:43:06.186Z,60.26
2023-02-13T02:46:00.215Z,59.95
2023-02-13T02:52:27.178Z,58.86
2023-02-13T02:55:06.444Z,59.28
2023-02-13T02:58:43.345Z,59.79
2023-02-13T03:01:51.892Z,59.95
2023-02-13T03:05:20.649Z,59.90
2023-02-13T03:07:59.062Z,60.21
2023-02-13T03:10:59.885Z,60.29
2023-02-13T03:13:47.234Z,60.36
2023-02-13T03:20:33.324Z,59.34
2023-02-13T03:23:41.246Z,59.80
2023-02-13T03:27:13.152Z,60.40
2023-02-13T03:30:08.659Z,60.47
2023-02-13T03:33:39.296Z,61.02
2023-02-13T03:40:29.309Z,61.55
2023-02-13T03:43:23.992Z,61.07
2023-02-13T03:46:02.014Z,60.54
2023-02-13T03:52:58.948Z,60.69
2023-02-13T03:56:00.346Z,61.21
2023-02-13T04:02:12.561Z,61.43
2023-02-13T04:05:08.976Z,61.75
2023-02-13T04:07:41.048Z,61.57
2023-02-13T04:10:14.467Z,61.56
2023-02-13T04:13:20.212Z,61.66
2023-02-13T04:16:19.823Z,60.64
2023-02-13T04:18:57.784Z,60.34
2023-02-13T04:21:35.218Z,60.71
2023-02-13T04:24:38.947Z,61.05
2023-02-13T04:27:13.619Z,61.36
2023-02-13T04:30:13.235Z,61.65
2023-02-13T04:33:11.228Z,61.71
2023-02-13T04:35:54.331Z,61.93
2023-02-13T04:38:40.086Z,62.46
2023-02-13T04:41:10.064Z,62.29
2023-02-13T04:43:52.416Z,61.44
2023-02-13T04:46:28.395Z,61.02
2023-02-13T04:49:04.104Z,61.51
2023-02-13T04:51:35.239Z,61.39
2023-02-13T04:54:06.418Z,61.78
2023-02-13T04:57:05.456Z,62.18
2023-02-13T04:59:38.533Z,62.52
2023-02-13T05:02:56.758Z,62.57
2023-02-13T05:05:29.503Z,62.66
2023-02-13T05:08:01.594Z,62.69
2023-02-13T05:10:39.933Z,61.85
2023-02-13T05:13:16.575Z,61.45
2023-02-13T05:15:52.569Z,61.60
2023-02-13T05:18:34.152Z,62.05
2023-02-13T05:21:38.156Z,61.98
2023-02-13T05:24:14.822Z,62.53
2023-02-13T05:27:01.292Z,62.72
2023-02-13T05:30:01.139Z,62.94
2023-02-13T05:32:39.704Z,63.26
2023-02-13T05:35:18.405Z,63.09
2023-02-13T05:38:17.837Z,62.37
2023-02-13T05:40:53.023Z,62.02
2023-02-13T05:43:53.205Z,62.66
2023-02-13T05:46:26.390Z,62.93
2023-02-13T05:49:03.174Z,63.08
2023-02-13T05:51:42.689Z,63.49
2023-02-13T05:54:12.820Z,63.34
2023-02-13T05:56:45.715Z,63.57
2023-02-13T05:59:14.546Z,63.83
2023-02-13T06:01:50.430Z,64.07
2023-02-13T06:04:24.333Z,63.58
2023-02-13T06:07:46.709Z,62.62
2023-02-13T06:10:23.472Z,62.23
2023-02-13T06:12:59.002Z,62.52
2023-02-13T06:16:23.037Z,63.23
2023-02-13T06:19:01.063Z,63.36
2023-02-13T06:25:18.929Z,63.82
2023-02-13T06:28:19.478Z,64.14
2023-02-13T06:30:51.629Z,64.18
2023-02-13T06:33:25.015Z,64.34
2023-02-13T06:36:00.296Z,63.41
2023-02-13T06:38:56.691Z,62.62
2023-02-13T06:41:27.657Z,62.27
2023-02-13T06:44:33.047Z,62.46
2023-02-13T06:47:05.886Z,62.74
2023-02-13T06:49:37.057Z,62.61
2023-02-13T06:52:34.508Z,62.78
2023-02-13T06:55:09.612Z,62.62
2023-02-13T06:57:44.867Z,62.69
2023-02-13T07:00:32.364Z,62.76
2023-02-13T07:03:06.259Z,62.65
2023-02-13T07:05:43.845Z,62.47
2023-02-13T07:08:38.379Z,61.54
2023-02-13T07:11:34.698Z,61.12
2023-02-13T07:14:10.557Z,61.48
2023-02-13T07:16:46.499Z,61.73
2023-02-13T07:19:40.011Z,61.69
2023-02-13T07:22:13.135Z,61.48
2023-02-13T07:24:54.743Z,61.45
2023-02-13T07:27:54.649Z,61.53
2023-02-13T07:30:32.787Z,61.38
2023-02-13T07:33:05.265Z,61.24
2023-02-13T07:36:07.934Z,61.07
2023-02-13T07:38:41.917Z,59.89
2023-02-13T07:41:14.683Z,59.41
2023-02-13T07:43:47.557Z,59.60
2023-02-13T07:46:16.133Z,59.39
2023-02-13T07:48:51.165Z,59.20
2023-02-13T07:51:25.553Z,59.15
2023-02-13T07:53:56.595Z,59.30
2023-02-13T07:56:26.922Z,59.26
2023-02-13T07:59:02.955Z,59.30
2023-02-13T08:02:23.864Z,59.30
2023-02-13T08:04:56.930Z,59.31
2023-02-13T08:07:37.614Z,59.44
2023-02-13T08:10:34.818Z,59.60
2023-02-13T08:13:04.781Z,58.82
2023-02-13T08:15:35.792Z,57.85
2023-02-13T08:18:10.967Z,57.45
2023-02-13T08:20:42.847Z,57.30
2023-02-13T08:23:13.671Z,56.80
2023-02-13T08:25:43.462Z,56.44
2023-02-13T08:28:27.477Z,56.72
2023-02-13T08:30:59.285Z,56.15
2023-02-13T08:33:39.277Z,56.04
2023-02-13T08:36:09.775Z,56.36
2023-02-13T08:41:13.374Z,56.22
2023-02-13T08:43:45.191Z,56.25
2023-02-13T08:46:16.880Z,55.94
2023-02-13T08:48:48.548Z,56.24
2023-02-13T08:51:21.294Z,56.11
2023-02-13T08:53:55.166Z,56.48
2023-02-13T08:56:27.301Z,56.75
2023-02-13T08:59:01.132Z,56.99
2023-02-13T09:01:31.106Z,56.99
2023-02-13T09:04:04.781Z,57.42
2023-02-13T09:06:34.865Z,57.78
2023-02-13T09:09:05.137Z,57.70
2023-02-13T09:11:42.866Z,57.80
2023-02-13T09:14:15.217Z,57.35
2023-02-13T09:16:48.989Z,57.32
2023-02-13T09:19:19.261Z,57.19
2023-02-13T09:21:50.862Z,57.51
2023-02-13T09:24:22.732Z,57.89
2023-02-13T09:26:56.864Z,58.32
2023-02-13T09:29:31.359Z,58.75
2023-02-13T09:32:05.088Z,59.04
2023-02-13T09:34:35.285Z,59.27
2023-02-13T09:37:09.054Z,59.55
2023-02-13T09:39:47.359Z,59.53
2023-02-13T09:42:23.981Z,59.53
2023-02-13T09:45:04.599Z,59.93
2023-02-13T09:48:26.834Z,59.73
2023-02-13T09:50:56.146Z,58.78
2023-02-13T09:53:25.803Z,58.54
2023-02-13T09:56:10.412Z,58.52
2023-02-13T09:58:48.874Z,58.95
2023-02-13T10:01:30.378Z,58.97
2023-02-13T10:04:44.197Z,59.33
2023-02-13T10:07:22.225Z,59.33
2023-02-13T10:10:29.193Z,59.59
2023-02-13T10:13:25.256Z,59.56
2023-02-13T10:16:48.022Z,59.11
2023-02-13T10:19:27.519Z,58.91
2023-02-13T10:22:31.413Z,58.78
2023-02-13T10:25:44.376Z,58.42
2023-02-13T10:28:17.629Z,58.73
2023-02-13T10:30:57.067Z,58.47
2023-02-13T10:33:30.222Z,57.51
2023-02-13T10:36:16.952Z,56.78
2023-02-13T10:38:48.375Z,56.91
2023-02-13T10:41:42.553Z,57.05
2023-02-13T10:44:24.197Z,57.21
2023-02-13T10:47:09.354Z,57.31
2023-02-13T10:50:15.753Z,57.32
2023-02-13T10:53:10.655Z,57.32
2023-02-13T10:56:29.951Z,57.59
2023-02-13T10:59:19.643Z,57.85
2023-02-13T11:02:36.505Z,57.75
2023-02-13T11:05:23.923Z,57.56
2023-02-13T11:07:53.319Z,57.76
2023-02-13T11:10:22.911Z,57.90
2023-02-13T11:12:55.539Z,58.29
2023-02-13T11:15:31.045Z,58.09
2023-02-13T11:18:33.452Z,57.74
2023-02-13T11:21:08.212Z,56.95
2023-02-13T11:23:47.803Z,57.29
2023-02-13T11:26:32.632Z,57.13
2023-02-13T11:29:06.463Z,57.33
2023-02-13T11:31:41.050Z,57.27
2023-02-13T11:34:29.110Z,57.13
2023-02-13T11:37:21.470Z,56.74
2023-02-13T11:40:23.849Z,56.74
2023-02-13T11:42:56.855Z,56.65
2023-02-13T11:45:32.391Z,56.34
2023-02-13T11:48:01.748Z,56.15
2023-02-13T11:50:37.832Z,56.31
2023-02-13T11:53:35.157Z,56.32
2023-02-13T11:56:08.374Z,56.58
2023-02-13T11:58:45.942Z,55.94
2023-02-13T12:01:28.764Z,56.01
2023-02-13T12:04:07.748Z,56.22
2023-02-13T12:07:03.247Z,56.53
2023-02-13T12:09:31.285Z,56.15
2023-02-13T12:12:07.716Z,56.53
2023-02-13T12:14:44.688Z,56.46
2023-02-13T12:17:31.411Z,56.51
2023-02-13T12:20:00.705Z,57.07
2023-02-13T12:23:05.272Z,56.81
2023-02-13T12:25:59.771Z,55.93
2023-02-13T12:29:17.446Z,56.66
2023-02-13T12:32:20.677Z,57.48
2023-02-13T12:35:04.475Z,58.13
2023-02-13T12:38:10.291Z,58.68
2023-02-13T12:41:37.412Z,59.01
2023-02-13T12:44:19.590Z,59.72
2023-02-13T12:47:34.940Z,60.04
2023-02-13T12:52:38.315Z,60.49
2023-02-13T12:55:40.426Z,60.00
2023-02-13T12:58:31.488Z,60.73
2023-02-13T13:01:24.590Z,61.26
2023-02-13T13:04:32.621Z,61.63
2023-02-13T13:07:34.572Z,61.59
2023-02-13T13:10:37.343Z,62.04
2023-02-13T13:13:33.645Z,61.55
2023-02-13T13:16:42.441Z,61.02
2023-02-13T13:19:28.842Z,61.20
2023-02-13T13:22:11.334Z,62.09
2023-02-13T13:25:21.219Z,62.70
2023-02-13T13:27:58.545Z,63.18
2023-02-13T13:30:35.658Z,63.59
2023-02-13T13:33:31.572Z,63.75
2023-02-13T13:36:36.191Z,63.77
2023-02-13T13:39:19.661Z,63.26
2023-02-13T13:41:56.202Z,62.87
2023-02-13T13:44:50.636Z,63.72
2023-02-13T13:47:33.965Z,64.47
2023-02-13T13:50:19.143Z,64.85
2023-02-13T13:53:10.929Z,65.20
2023-02-13T13:56:05.547Z,65.37
2023-02-13T13:59:03.809Z,65.63
2023-02-13T14:01:37.338Z,65.31
2023-02-13T14:04:52.627Z,64.86
2023-02-13T14:07:55.973Z,65.56
2023-02-13T14:10:46.368Z,66.10
2023-02-13T14:13:31.321Z,66.51
2023-02-13T14:16:03.891Z,67.24
2023-02-13T14:18:57.820Z,67.44
2023-02-13T14:21:32.626Z,67.87
2023-02-13T14:24:10.228Z,67.40
2023-02-13T14:26:45.670Z,67.27
2023-02-13T14:29:34.235Z,67.41
2023-02-13T14:32:29.714Z,67.90
2023-02-13T14:35:23.613Z,68.25
2023-02-13T14:38:01.136Z,68.56
2023-02-13T14:40:49.943Z,69.05
2023-02-13T14:44:04.774Z,69.26
2023-02-13T14:53:26.688Z,71.56
2023-02-13T14:56:22.717Z,72.74
2023-02-13T14:59:19.017Z,73.60
2023-02-13T15:01:53.005Z,73.08
2023-02-13T15:04:26.787Z,72.76
2023-02-13T15:06:59.449Z,73.59
2023-02-13T15:09:35.133Z,74.21
2023-02-13T15:12:27.046Z,74.68
2023-02-13T15:15:03.726Z,75.12
2023-02-13T15:17:39.517Z,75.31
2023-02-13T15:20:21.801Z,74.37
2023-02-13T15:23:01.491Z,73.71
2023-02-13T15:25:34.130Z,74.21
2023-02-13T15:28:04.013Z,74.11
2023-02-13T15:30:57.815Z,74.09
2023-02-13T15:33:47.448Z,74.45
2023-02-13T15:36:27.542Z,74.42
2023-02-13T15:39:09.668Z,73.46
2023-02-13T15:41:44.533Z,72.85
2023-02-13T15:44:35.285Z,73.28
2023-02-13T15:47:19.233Z,73.88
2023-02-13T15:49:53.760Z,73.77
2023-02-13T15:52:48.647Z,73.90
2023-02-13T15:55:32.704Z,74.11
2023-02-13T15:58:01.840Z,73.57
2023-02-13T16:00:35.391Z,72.74
2023-02-13T16:03:06.365Z,72.96
2023-02-13T16:05:40.535Z,73.27
2023-02-13T16:08:40.354Z,73.90
2023-02-13T16:11:30.478Z,73.86
2023-02-13T16:14:18.889Z,74.16
2023-02-13T16:16:55.474Z,74.49
2023-02-13T16:19:26.394Z,74.10
2023-02-13T16:21:55.269Z,73.49
2023-02-13T16:24:23.493Z,73.42
2023-02-13T16:26:53.851Z,73.87
2023-02-13T16:29:26.057Z,74.65
2023-02-13T16:32:04.457Z,74.74
2023-02-13T16:34:42.301Z,75.18
2023-02-13T16:37:37.346Z,75.17
2023-02-13T16:40:42.378Z,74.47
2023-02-13T16:43:44.104Z,73.75
2023-02-13T16:46:22.116Z,74.48
2023-02-13T16:48:57.571Z,74.90
2023-02-13T16:51:39.962Z,75.53
2023-02-13T16:54:12.361Z,75.51
2023-02-13T16:56:51.648Z,75.17
2023-02-13T16:59:39.432Z,74.49
2023-02-13T17:02:40.986Z,74.53
2023-02-13T17:05:14.901Z,75.10
2023-02-13T17:07:57.545Z,75.38
2023-02-13T17:10:35.739Z,75.78
2023-02-13T17:13:32.758Z,76.02
2023-02-13T17:16:23.774Z,75.33
2023-02-13T17:18:53.283Z,74.74
2023-02-13T17:21:55.511Z,75.48
2023-02-13T17:24:25.978Z,76.20
2023-02-13T17:26:56.660Z,76.33
2023-02-13T17:29:31.548Z,76.77
2023-02-13T17:32:24.413Z,76.40
2023-02-13T17:34:55.036Z,75.96
2023-02-13T17:37:26.302Z,76.63
2023-02-13T17:39:56.931Z,76.82
2023-02-13T17:42:29.081Z,77.08
2023-02-13T17:44:57.579Z,77.07
2023-02-13T17:47:30.539Z,76.49
2023-02-13T17:50:09.668Z,75.88
2023-02-13T17:53:09.997Z,76.08
2023-02-13T17:56:08.474Z,77.16
2023-02-13T17:58:39.471Z,77.75
2023-02-13T18:01:09.678Z,77.90
2023-02-13T18:03:40.667Z,77.04
2023-02-13T18:06:15.622Z,76.58
2023-02-13T18:08:45.973Z,76.73
2023-02-13T18:11:17.263Z,77.32
2023-02-13T18:13:48.783Z,77.78
2023-02-13T18:16:39.712Z,77.62
2023-02-13T18:19:09.237Z,78.01
2023-02-13T18:21:38.865Z,77.35
2023-02-13T18:24:08.806Z,77.21
2023-02-13T18:26:37.883Z,77.27
2023-02-13T18:29:14.401Z,77.57
2023-02-13T18:31:48.145Z,77.97
2023-02-13T18:34:19.747Z,78.31
2023-02-13T18:36:50.793Z,78.32
2023-02-13T18:39:21.704Z,77.65
2023-02-13T18:41:50.294Z,77.58
2023-02-13T18:44:28.620Z,77.64
2023-02-13T18:47:00.815Z,77.78
2023-02-13T18:49:29.623Z,78.21
2023-02-13T18:52:03.293Z,78.39
2023-02-13T18:54:32.493Z,78.41
2023-02-13T18:57:03.147Z,78.20
2023-02-13T18:59:32.240Z,77.67
2023-02-13T19:02:04.292Z,77.23
2023-02-13T19:04:38.310Z,78.06
2023-02-13T19:07:12.023Z,78.25
2023-02-13T19:09:45.648Z,78.65
2023-02-13T19:12:17.623Z,78.70
2023-02-13T19:14:57.187Z,79.24
2023-02-13T19:17:30.996Z,78.26
2023-02-13T19:20:04.185Z,77.85
2023-02-13T19:22:50.121Z,77.60
2023-02-13T19:25:22.594Z,78.32
2023-02-13T19:27:58.999Z,78.83
2023-02-13T19:30:36.267Z,79.08
2023-02-13T19:33:14.061Z,79.05
2023-02-13T19:35:56.081Z,78.26
2023-02-13T19:38:28.758Z,77.82
2023-02-13T19:41:04.233Z,78.03
2023-02-13T19:43:39.279Z,78.71
2023-02-13T19:46:13.873Z,79.35
2023-02-13T19:48:48.715Z,79.70
2023-02-13T19:51:24.036Z,79.72
2023-02-13T19:54:04.173Z,78.77
2023-02-13T19:56:47.255Z,78.79
2023-02-13T19:59:23.071Z,78.89
2023-02-13T20:01:55.012Z,79.76
2023-02-13T20:04:57.562Z,80.23
2023-02-13T20:07:25.210Z,80.92
2023-02-13T20:09:57.737Z,81.19
2023-02-13T20:12:33.464Z,80.24
2023-02-13T20:15:23.093Z,79.63
2023-02-13T20:18:22.304Z,80.08
2023-02-13T20:20:58.099Z,80.82
2023-02-13T20:23:58.920Z,81.27
2023-02-13T20:26:39.420Z,81.48
2023-02-13T20:29:08.988Z,81.17
2023-02-13T20:32:10.625Z,80.34
2023-02-13T20:34:58.433Z,80.02
2023-02-13T20:37:51.690Z,80.46
2023-02-13T20:40:23.204Z,80.92
2023-02-13T20:43:13.740Z,80.94
2023-02-13T20:46:04.925Z,81.14
2023-02-13T20:48:41.185Z,80.07
2023-02-13T20:51:16.938Z,79.58
2023-02-13T20:53:48.034Z,80.00
2023-02-13T20:56:26.128Z,80.34
2023-02-13T20:59:01.577Z,80.93
2023-02-13T21:01:35.926Z,80.93
2023-02-13T21:04:09.816Z,80.40
2023-02-13T21:06:38.920Z,79.71
2023-02-13T21:09:10.164Z,80.02
2023-02-13T21:11:47.748Z,80.30
2023-02-13T21:15:14.243Z,80.65
2023-02-13T21:17:44.701Z,80.35
2023-02-13T21:20:41.272Z,79.79
2023-02-13T21:23:15.070Z,79.99
2023-02-13T21:25:47.301Z,79.91
2023-02-13T21:28:17.559Z,80.49
2023-02-13T21:30:52.807Z,80.77
2023-02-13T21:33:24.960Z,80.86
2023-02-13T21:36:30.219Z,79.94
2023-02-13T21:39:51.374Z,79.75
2023-02-13T21:42:26.407Z,79.66
2023-02-13T21:44:55.452Z,80.30
2023-02-13T21:47:52.211Z,80.58
2023-02-13T21:50:24.322Z,80.91
2023-02-13T21:53:20.031Z,80.08
2023-02-13T21:55:52.131Z,79.72
2023-02-13T21:58:23.639Z,79.32
2023-02-13T22:01:24.872Z,79.13
2023-02-13T22:03:54.125Z,79.54
2023-02-13T22:06:23.832Z,79.98
2023-02-13T22:09:01.409Z,80.17
2023-02-13T22:11:39.632Z,79.09
2023-02-13T22:14:16.546Z,78.55
2023-02-13T22:16:48.039Z,79.11
